KUOX/UOX METAR and TAF weather

Enter ICAO airport designator
Station Type Date Time Source
KUOX METAR 2021/04/14 20:15 UTC NOAA

KUOX 142015Z AUTO 36007KT 320V030 10SM OVC019 16/12 A3006 RMK AO2 PWINO


Station Type Date Time Source
KUOX Decoded METAR 2021/04/14 20:15 UTC NOAA

Oxford, University-Oxford Airport, MS, United States (KUOX) 34-23-04N 089-32-08W
Apr 14, 2021 - 04:15 PM EDT / 2021.04.14 2015 UTC
Wind: from the N (360 degrees) at 8 MPH (7 KT) (direction variable):0
Visibility: 10 mile(s):0
Sky conditions: overcast
Temperature: 60 F (16 C)
Dew Point: 53 F (12 C)
Relative Humidity: 77%
Pressure (altimeter): 30.06 in. Hg (1017 hPa)
ob: KUOX 142015Z AUTO 36007KT 320V030 10SM OVC019 16/12 A3006 RMK AO2 PWINO
cycle: 20

Station Type Date Time Source
KUOX TAF UTC NOAA

Error!

Example: see airport list